»·PEaware :: SWA4678 KSFO-KLAS

SWA4678 :: KSFO-KLAS

FLIGHT INFORMATION

Flight Status: Arrived
Operator:
Southwest Airlines
More flights by this operator :: More flights under this callsign
Pilot: Ben F. (2808)
Aircraft: BOEING 737-700
(B737)
More flights by this aircraft type
Origin: KSFO San Francisco Intl
United States
Destination: KLAS McCarran Intl
United States
More flights between these airports :: More routes between these airports
Route: +SSTIK4 NTELL BTY SUNST4
File this flight plan on PilotEdge
Remarks:
Altitude:
(Current/Filed)
33,000ft
Speed:
(Current/Filed)
451kts
Departed: 06-Oct-19 10:29 AM
Arrived: 06-Oct-19 11:33 AM
Distance/Time
Traveled:
359nm/1:03
Distance/Time
To Go:
Arrived

Flight Plot

Page will automatically refresh every two minutes.

Flight plan parsing failed; only flown route is shown


Map Options




Map Legend


Flown Route
Filed Route
Departure Airport
Arrival Airport
Navaid (VOR, NDB)
Fix

Horizontal Profiles

Position Reports

Time Latitude Longitude Heading Altitude Ground
Speed
06-Oct-19 09:56 37.612227 -122.384209 50 21ft 0kts
06-Oct-19 09:58 37.612227 -122.384209 50 21ft 0kts
06-Oct-19 09:58 37.612227 -122.384209 50 21ft 0kts
06-Oct-19 09:59 37.612227 -122.384209 50 21ft 0kts
06-Oct-19 10:00 37.612227 -122.384209 50 21ft 0kts
06-Oct-19 10:02 37.612227 -122.384209 50 21ft 0kts
06-Oct-19 10:02 37.612227 -122.384209 50 21ft 0kts
06-Oct-19 10:03 37.612227 -122.384209 50 21ft 0kts
06-Oct-19 10:04 37.612227 -122.384209 50 21ft 0kts
06-Oct-19 10:05 37.612227 -122.384209 50 21ft 0kts
06-Oct-19 10:06 37.612227 -122.384209 50 21ft 0kts
06-Oct-19 10:07 37.612227 -122.384209 50 21ft 0kts
06-Oct-19 10:08 37.612227 -122.384209 50 21ft 0kts
06-Oct-19 10:09 37.612227 -122.384209 50 21ft 0kts
06-Oct-19 10:10 37.612227 -122.384209 50 21ft 0kts
06-Oct-19 10:11 37.612227 -122.384209 50 21ft 0kts
06-Oct-19 10:12 37.612227 -122.384209 50 21ft 0kts
06-Oct-19 10:13 37.612227 -122.384209 50 21ft 0kts
06-Oct-19 10:14 37.612227 -122.384209 50 21ft 0kts
06-Oct-19 10:15 37.612227 -122.384209 50 21ft 0kts
06-Oct-19 10:16 37.612227 -122.384209 50 21ft 0kts
06-Oct-19 10:17 37.612227 -122.384209 50 21ft 0kts
06-Oct-19 10:18 37.612227 -122.384209 50 21ft 0kts
06-Oct-19 10:19 37.612207 -122.384239 50 21ft 1kts
06-Oct-19 10:20 37.611802 -122.384864 64 21ft 2kts
06-Oct-19 10:21 37.611758 -122.385096 100 21ft 0kts
06-Oct-19 10:22 37.611758 -122.385095 100 21ft 0kts
06-Oct-19 10:23 37.611515 -122.384652 102 21ft 12kts
06-Oct-19 10:24 37.611398 -122.384025 113 21ft 0kts
06-Oct-19 10:25 37.609677 -122.384501 211 21ft 16kts
06-Oct-19 10:26 37.608450 -122.383728 115 21ft 0kts
06-Oct-19 10:27 37.608368 -122.382597 29 21ft 6kts
06-Oct-19 10:28 37.629915 -122.368535 28 839ft 154kts
06-Oct-19 10:29 37.678948 -122.363281 352 3224ft 221kts
06-Oct-19 10:30 37.704012 -122.436673 239 6767ft 285kts
06-Oct-19 10:31 37.629250 -122.460355 183 10665ft 300kts
06-Oct-19 10:32 37.536974 -122.469811 184 13021ft 361kts
06-Oct-19 10:33 37.451579 -122.408848 127 16278ft 378kts
06-Oct-19 10:34 37.402220 -122.290021 106 19000ft 394kts
06-Oct-19 10:35 37.374999 -122.155831 104 19602ft 401kts
06-Oct-19 10:36 37.347383 -122.018481 105 22401ft 413kts
06-Oct-19 10:37 37.318586 -121.875380 105 24603ft 430kts
06-Oct-19 10:38 37.288830 -121.726912 105 26579ft 446kts
06-Oct-19 10:39 37.257743 -121.573913 105 28285ft 460kts
06-Oct-19 10:40 37.225362 -121.416095 106 29862ft 470kts
06-Oct-19 10:41 37.192542 -121.257378 106 31792ft 469kts
06-Oct-19 10:42 37.159553 -121.099030 106 33137ft 473kts
06-Oct-19 10:43 37.126129 -120.939757 106 33149ft 470kts
06-Oct-19 10:44 37.092626 -120.781252 106 33157ft 471kts
06-Oct-19 10:45 37.058845 -120.622567 107 33160ft 471kts
06-Oct-19 10:46 37.024835 -120.463881 107 33161ft 473kts
06-Oct-19 10:47 36.990529 -120.304932 107 33171ft 473kts
06-Oct-19 10:48 36.956187 -120.145852 107 33169ft 473kts
06-Oct-19 10:49 36.921414 -119.987679 106 33171ft 474kts
06-Oct-19 10:50 36.907606 -119.823005 92 33171ft 479kts
06-Oct-19 10:51 36.903643 -119.657215 92 33165ft 478kts
06-Oct-19 10:52 36.899329 -119.490742 92 33172ft 478kts
06-Oct-19 10:53 36.895832 -119.325234 92 33189ft 478kts
06-Oct-19 10:54 36.891725 -119.158891 92 33214ft 478kts
06-Oct-19 10:55 36.887157 -118.993210 92 33250ft 478kts
06-Oct-19 10:56 36.882285 -118.827517 92 33264ft 478kts
06-Oct-19 10:57 36.877166 -118.661478 92 33330ft 478kts
06-Oct-19 10:58 36.871824 -118.495775 92 33356ft 479kts
06-Oct-19 10:59 36.866248 -118.329402 93 33358ft 479kts
06-Oct-19 11:00 36.860473 -118.163345 93 33340ft 479kts
06-Oct-19 11:01 36.854500 -117.997538 93 33340ft 479kts
06-Oct-19 11:02 36.848314 -117.831473 92 33339ft 479kts
06-Oct-19 11:03 36.841983 -117.664914 92 33338ft 479kts
06-Oct-19 11:04 36.835603 -117.498791 93 33357ft 479kts
06-Oct-19 11:05 36.828932 -117.333176 93 33355ft 479kts
06-Oct-19 11:06 36.822080 -117.166989 93 33352ft 479kts
06-Oct-19 11:07 36.812667 -117.000817 93 33350ft 480kts
06-Oct-19 11:08 36.804597 -116.834967 93 33347ft 479kts
06-Oct-19 11:09 36.757337 -116.684287 131 32397ft 469kts
06-Oct-19 11:10 36.670902 -116.562474 133 29595ft 462kts
06-Oct-19 11:11 36.587737 -116.444296 133 27139ft 446kts
06-Oct-19 11:12 36.507034 -116.330338 133 24727ft 433kts
06-Oct-19 11:13 36.428657 -116.219939 133 22357ft 421kts
06-Oct-19 11:14 36.352410 -116.112448 133 20028ft 408kts
06-Oct-19 11:15 36.278280 -116.008704 132 17474ft 395kts
06-Oct-19 11:16 36.208310 -115.909871 130 16098ft 358kts
06-Oct-19 11:17 36.145445 -115.822176 132 14575ft 329kts
06-Oct-19 11:18 36.085401 -115.739792 132 13052ft 316kts
06-Oct-19 11:19 36.027222 -115.660900 132 11548ft 305kts
06-Oct-19 11:20 35.970979 -115.585041 132 11020ft 298kts
06-Oct-19 11:21 35.914504 -115.508887 132 11030ft 301kts
06-Oct-19 11:22 35.881133 -115.420253 102 10058ft 282kts
06-Oct-19 11:23 35.864477 -115.329380 98 8357ft 264kts
06-Oct-19 11:24 35.907247 -115.267529 30 6683ft 248kts
06-Oct-19 11:25 35.970059 -115.233492 29 4824ft 245kts
06-Oct-19 11:26 36.027213 -115.198442 26 3420ft 212kts
06-Oct-19 11:27 36.074118 -115.170866 25 2741ft 166kts
06-Oct-19 11:28 36.097590 -115.133839 111 3377ft 165kts
06-Oct-19 11:29 36.052291 -115.133193 199 4145ft 178kts
06-Oct-19 11:30 36.042652 -115.176513 328 3523ft 161kts
06-Oct-19 11:31 36.079194 -115.164717 27 2192ft 120kts
06-Oct-19 11:32 36.086941 -115.158057 153 2189ft 11kts
06-Oct-19 11:33 36.081763 -115.155089 159 2189ft 16kts
06-Oct-19 11:34 36.078777 -115.151266 90 2189ft 22kts
06-Oct-19 11:35 36.079255 -115.146176 358 2189ft 6kts
06-Oct-19 11:36 36.079693 -115.146230 353 2189ft 0kts

Navigation Log

Ident Type
Flight plan parsing failed, navigation log unavailable